createdAt,value
2022-09-30T00:00:27.425Z,9.50
2022-09-30T00:05:34.585Z,9.40
2022-09-30T00:10:41.290Z,9.50
2022-09-30T00:15:49.669Z,9.40
2022-09-30T00:20:56.536Z,9.30
2022-09-30T00:26:12.795Z,9.50
2022-09-30T00:31:23.846Z,9.50
2022-09-30T00:36:31.215Z,9.50
2022-09-30T00:41:40.029Z,9.40
2022-09-30T00:46:48.574Z,9.40
2022-09-30T00:51:58.707Z,9.20
2022-09-30T00:57:08.424Z,9.40
2022-09-30T01:02:15.999Z,9.50
2022-09-30T01:07:25.477Z,9.40
2022-09-30T01:12:32.863Z,9.40
2022-09-30T01:17:56.338Z,9.30
2022-09-30T01:23:28.259Z,9.40
2022-09-30T01:29:09.587Z,9.40
2022-09-30T01:34:45.504Z,9.40
2022-09-30T01:40:05.648Z,9.40
2022-09-30T01:45:21.002Z,9.40
2022-09-30T01:50:47.284Z,9.40
2022-09-30T01:56:04.114Z,9.40
2022-09-30T02:01:15.348Z,9.40
2022-09-30T02:06:28.932Z,9.20
2022-09-30T02:11:38.011Z,9.20
2022-09-30T02:17:02.563Z,9.20
2022-09-30T02:22:16.594Z,9.20
2022-09-30T02:27:28.415Z,9.20
2022-09-30T02:32:45.879Z,9.20
2022-09-30T02:37:59.710Z,9.20
2022-09-30T02:43:08.328Z,9.20
2022-09-30T02:48:48.407Z,9.10
2022-09-30T02:54:11.263Z,9.10
2022-09-30T02:59:18.087Z,9.20
2022-09-30T03:04:32.261Z,9.10
2022-09-30T03:09:39.087Z,9.20
2022-09-30T03:15:21.655Z,9.20
2022-09-30T03:20:55.132Z,9.30
2022-09-30T03:26:20.570Z,9.30
2022-09-30T03:31:51.236Z,9.20
2022-09-30T03:37:27.124Z,9.30
2022-09-30T03:42:41.493Z,9.30
2022-09-30T03:47:52.380Z,9.20
2022-09-30T03:52:59.226Z,9.20
2022-09-30T03:58:05.944Z,9.10
2022-09-30T04:03:12.683Z,9.10
2022-09-30T04:08:20.335Z,9.20
2022-09-30T04:13:27.035Z,9.20
2022-09-30T04:18:34.261Z,9.20
2022-09-30T04:23:43.033Z,9.20
2022-09-30T04:28:50.117Z,9.10
2022-09-30T04:33:58.577Z,9.20
2022-09-30T04:39:05.251Z,9.30
2022-09-30T04:44:13.566Z,9.20
2022-09-30T04:49:20.479Z,9.20
2022-09-30T04:54:27.408Z,9.10
2022-09-30T04:59:34.122Z,9.20
2022-09-30T05:04:41.707Z,9.20
2022-09-30T05:09:48.327Z,9.10
2022-09-30T05:14:55.012Z,9.10
2022-09-30T05:20:02.711Z,9.20
2022-09-30T05:25:10.651Z,9.10
2022-09-30T05:30:17.316Z,9.10
2022-09-30T05:35:24.003Z,9.10
2022-09-30T05:40:32.509Z,9.20
2022-09-30T05:45:40.535Z,9.30
2022-09-30T05:50:49.173Z,9.40
2022-09-30T05:55:58.887Z,9.50
2022-09-30T06:01:14.112Z,9.30
2022-09-30T06:06:21.769Z,9.30
2022-09-30T06:11:28.602Z,9.50
2022-09-30T06:16:37.787Z,9.50
2022-09-30T06:21:46.348Z,9.40
2022-09-30T06:26:53.883Z,9.40
2022-09-30T06:32:04.324Z,9.50
2022-09-30T06:37:12.622Z,9.50
2022-09-30T06:42:22.369Z,9.60
2022-09-30T06:47:29.656Z,9.70
2022-09-30T06:52:37.414Z,9.80
2022-09-30T06:57:45.942Z,9.90
2022-09-30T07:02:57.133Z,9.90
2022-09-30T07:08:04.612Z,9.90
2022-09-30T07:13:13.281Z,10.10
2022-09-30T07:18:22.586Z,10.00
2022-09-30T07:23:30.998Z,10.10
2022-09-30T07:28:40.031Z,10.20
2022-09-30T07:33:51.986Z,10.30
2022-09-30T07:39:00.778Z,10.30
2022-09-30T07:44:13.132Z,10.50
2022-09-30T07:49:28.064Z,10.80
2022-09-30T07:54:41.379Z,11.00
2022-09-30T07:59:46.065Z,11.00
2022-09-30T08:04:53.381Z,11.10
2022-09-30T08:10:00.112Z,11.20
2022-09-30T08:15:09.677Z,11.10
2022-09-30T08:20:21.466Z,11.30
2022-09-30T08:25:28.610Z,11.00
2022-09-30T08:30:39.039Z,10.80
2022-09-30T08:35:45.716Z,11.00
2022-09-30T08:41:23.494Z,11.30
2022-09-30T08:46:41.814Z,11.70
2022-09-30T08:51:50.953Z,12.00
2022-09-30T08:56:59.041Z,12.50
2022-09-30T09:02:24.757Z,12.80
2022-09-30T09:08:02.858Z,13.00
2022-09-30T09:13:26.570Z,12.70
2022-09-30T09:18:48.687Z,12.60
2022-09-30T09:23:59.451Z,12.30
2022-09-30T09:29:48.512Z,12.20
2022-09-30T09:35:00.838Z,12.20
2022-09-30T09:40:15.113Z,12.40
2022-09-30T09:45:38.295Z,12.50
2022-09-30T09:51:10.914Z,12.10
2022-09-30T09:56:22.268Z,12.10
2022-09-30T10:01:30.553Z,12.40
2022-09-30T10:06:55.326Z,12.50
2022-09-30T10:12:12.564Z,12.30
2022-09-30T10:17:34.900Z,12.20
2022-09-30T10:22:41.856Z,12.40
2022-09-30T10:28:01.879Z,12.50
2022-09-30T10:33:32.024Z,12.60
2022-09-30T10:38:52.070Z,13.00
2022-09-30T10:44:03.032Z,13.10
2022-09-30T10:49:29.252Z,13.10
2022-09-30T10:54:55.595Z,13.00
2022-09-30T11:00:10.616Z,13.20
2022-09-30T11:05:39.670Z,13.40
2022-09-30T11:11:22.471Z,13.90
2022-09-30T11:16:39.626Z,14.10
2022-09-30T11:22:07.331Z,13.50
2022-09-30T11:27:43.788Z,13.20
2022-09-30T11:33:28.749Z,13.20
2022-09-30T11:39:04.428Z,13.10
2022-09-30T11:44:34.611Z,13.30
2022-09-30T11:50:22.278Z,13.30
2022-09-30T11:55:57.646Z,13.30
2022-09-30T12:01:18.457Z,13.30
2022-09-30T12:06:38.744Z,13.20
2022-09-30T12:11:50.068Z,12.90
2022-09-30T12:16:58.463Z,13.10
2022-09-30T12:22:18.714Z,13.10
2022-09-30T12:27:39.605Z,13.20
2022-09-30T12:33:13.438Z,12.90
2022-09-30T12:38:33.972Z,13.10
2022-09-30T12:44:21.675Z,12.90
2022-09-30T12:49:32.665Z,13.10
2022-09-30T12:54:43.872Z,13.10
2022-09-30T13:00:00.748Z,13.20
2022-09-30T13:05:35.173Z,13.00
2022-09-30T13:10:49.404Z,13.00
2022-09-30T13:16:07.060Z,13.00
2022-09-30T13:21:21.944Z,13.00
2022-09-30T13:26:41.471Z,13.10
2022-09-30T13:31:55.992Z,13.10
2022-09-30T13:37:07.613Z,13.00
2022-09-30T13:42:24.957Z,13.30
2022-09-30T13:47:49.012Z,13.30
2022-09-30T13:53:02.857Z,13.10
2022-09-30T13:58:28.170Z,13.10
2022-09-30T14:04:18.937Z,13.00
2022-09-30T14:09:54.175Z,13.00
2022-09-30T14:15:26.412Z,13.00
2022-09-30T14:21:02.717Z,12.60
2022-09-30T14:26:47.176Z,12.40
2022-09-30T14:31:54.052Z,12.70
2022-09-30T14:37:00.698Z,12.70
2022-09-30T14:42:11.744Z,12.80
2022-09-30T14:47:23.007Z,12.60
2022-09-30T14:52:40.288Z,12.60
2022-09-30T14:57:51.817Z,12.60
2022-09-30T15:02:59.655Z,12.60
2022-09-30T15:08:18.375Z,12.50
2022-09-30T15:13:33.599Z,12.50
2022-09-30T15:18:46.343Z,12.50
2022-09-30T15:24:00.443Z,12.50
2022-09-30T15:29:08.647Z,12.50
2022-09-30T15:34:30.698Z,12.50
2022-09-30T15:39:59.377Z,12.40
2022-09-30T15:45:19.607Z,12.30
2022-09-30T15:50:53.372Z,12.40
2022-09-30T15:56:04.213Z,12.30
2022-09-30T16:01:26.384Z,12.30
2022-09-30T16:06:53.586Z,12.30
2022-09-30T16:12:29.891Z,12.30
2022-09-30T16:17:40.921Z,12.20
2022-09-30T16:22:52.314Z,12.20
2022-09-30T16:28:03.858Z,12.10
2022-09-30T16:33:12.365Z,12.10
2022-09-30T16:38:20.417Z,12.20
2022-09-30T16:43:28.559Z,12.10
2022-09-30T16:48:40.284Z,12.20
2022-09-30T16:53:48.610Z,12.00
2022-09-30T16:58:55.474Z,12.00
2022-09-30T17:04:05.100Z,12.10
2022-09-30T17:09:12.810Z,12.20
2022-09-30T17:14:20.491Z,12.00
2022-09-30T17:19:28.689Z,11.90
2022-09-30T17:24:35.373Z,11.80
2022-09-30T17:29:42.429Z,11.80
2022-09-30T17:34:49.115Z,11.80
2022-09-30T17:39:56.184Z,11.80
2022-09-30T17:45:02.874Z,11.80
2022-09-30T17:50:13.409Z,12.10
2022-09-30T17:55:20.199Z,12.00
2022-09-30T18:00:29.375Z,12.10
2022-09-30T18:05:36.231Z,12.10
2022-09-30T18:10:43.712Z,12.20
2022-09-30T18:15:50.768Z,12.10
2022-09-30T18:20:57.483Z,12.10
2022-09-30T18:26:04.319Z,12.10
2022-09-30T18:31:17.465Z,12.10
2022-09-30T18:36:29.539Z,12.10
2022-09-30T18:41:44.462Z,12.00
2022-09-30T18:46:47.656Z,12.00
2022-09-30T18:51:59.073Z,12.00
2022-09-30T18:57:06.992Z,12.10
2022-09-30T19:02:18.334Z,12.00
2022-09-30T19:07:27.545Z,12.10
2022-09-30T19:12:39.713Z,12.00
2022-09-30T19:17:50.144Z,11.90
2022-09-30T19:22:57.410Z,11.80
2022-09-30T19:28:04.509Z,12.00
2022-09-30T19:33:11.494Z,12.00
2022-09-30T19:38:33.794Z,11.90
2022-09-30T19:43:33.432Z,11.90
2022-09-30T19:48:42.296Z,12.00
2022-09-30T19:54:02.864Z,12.00
2022-09-30T19:59:02.508Z,12.10
2022-09-30T20:04:10.037Z,12.00
2022-09-30T20:09:16.902Z,12.00
2022-09-30T20:14:43.128Z,12.00
2022-09-30T20:19:53.977Z,11.90
2022-09-30T20:25:01.597Z,12.00
2022-09-30T20:30:11.142Z,12.10
2022-09-30T20:35:19.879Z,12.00
2022-09-30T20:40:26.995Z,12.10
2022-09-30T20:45:33.880Z,11.90
2022-09-30T20:50:44.333Z,11.90
2022-09-30T20:55:51.687Z,12.00
2022-09-30T21:01:05.349Z,12.00
2022-09-30T21:06:12.557Z,11.80
2022-09-30T21:11:23.694Z,11.90
2022-09-30T21:16:32.233Z,11.80
2022-09-30T21:21:39.653Z,11.90
2022-09-30T21:26:46.401Z,11.80
2022-09-30T21:31:53.126Z,11.80
2022-09-30T21:37:00.361Z,11.90
2022-09-30T21:42:08.892Z,11.80
2022-09-30T21:47:15.897Z,11.80
2022-09-30T21:52:24.327Z,11.90
2022-09-30T21:57:31.118Z,11.80
2022-09-30T22:02:39.146Z,11.90
2022-09-30T22:07:48.831Z,11.80
2022-09-30T22:12:55.589Z,11.80
2022-09-30T22:18:03.303Z,11.90
2022-09-30T22:23:12.253Z,12.00
2022-09-30T22:28:19.562Z,11.90
2022-09-30T22:33:45.315Z,11.80
2022-09-30T22:38:54.895Z,11.90
2022-09-30T22:44:02.292Z,12.00
2022-09-30T22:49:09.056Z,11.80
2022-09-30T22:54:19.361Z,11.80
2022-09-30T22:59:28.599Z,11.90
2022-09-30T23:04:37.151Z,11.80
2022-09-30T23:09:44.441Z,11.90
2022-09-30T23:14:51.262Z,11.90
2022-09-30T23:20:00.413Z,12.00
2022-09-30T23:25:09.492Z,12.00
2022-09-30T23:30:18.335Z,11.90
2022-09-30T23:35:25.278Z,11.70
2022-09-30T23:40:32.661Z,11.80
2022-09-30T23:45:40.310Z,11.60
2022-09-30T23:50:49.026Z,11.70
2022-09-30T23:56:04.817Z,11.70
